createdAt,value
2019-05-14T00:01:36.468Z,99763.36
2019-05-14T00:04:11.409Z,99759.94
2019-05-14T00:06:43.750Z,99761.56
2019-05-14T00:09:16.783Z,99758.25
2019-05-14T00:11:51.146Z,99757.56
2019-05-14T00:14:35.656Z,99759.35
2019-05-14T00:16:58.153Z,99758.64
2019-05-14T00:19:31.894Z,99755.70
2019-05-14T00:22:04.963Z,99749.66
2019-05-14T00:24:37.402Z,99751.75
2019-05-14T00:27:11.430Z,99756.55
2019-05-14T00:29:44.727Z,99750.73
2019-05-14T00:32:17.497Z,99744.39
2019-05-14T00:34:51.576Z,99739.69
2019-05-14T00:37:24.254Z,99739.84
2019-05-14T00:39:56.867Z,99733.34
2019-05-14T00:42:31.779Z,99727.67
2019-05-14T00:45:05.097Z,99722.84
2019-05-14T00:47:37.460Z,99725.84
2019-05-14T00:50:11.314Z,99719.20
2019-05-14T00:52:46.308Z,99720.44
2019-05-14T00:55:18.463Z,99730.14
2019-05-14T00:57:52.134Z,99740.49
2019-05-14T01:00:25.138Z,99735.97
2019-05-14T01:02:57.832Z,99733.34
2019-05-14T01:05:32.092Z,99736.36
2019-05-14T01:08:05.120Z,99729.48
2019-05-14T01:10:36.613Z,99746.94
2019-05-14T01:13:08.410Z,99728.47
2019-05-14T01:15:41.441Z,99730.57
2019-05-14T01:18:14.004Z,99726.70
2019-05-14T01:20:46.485Z,99726.51
2019-05-14T01:23:18.678Z,99725.38
2019-05-14T01:25:51.802Z,99719.27
2019-05-14T01:28:24.171Z,99716.22
2019-05-14T01:30:56.544Z,99715.83
2019-05-14T01:33:28.888Z,99716.49
2019-05-14T01:36:02.095Z,99720.14
2019-05-14T01:38:35.014Z,99713.72
2019-05-14T01:41:07.099Z,99716.56
2019-05-14T01:43:41.927Z,99715.41
2019-05-14T01:46:14.718Z,99717.50
2019-05-14T01:48:46.802Z,99719.41
2019-05-14T01:51:22.181Z,99728.73
2019-05-14T01:53:53.930Z,99725.47
2019-05-14T01:56:26.675Z,99721.34
2019-05-14T01:59:01.651Z,99722.17
2019-05-14T02:01:34.151Z,99725.52
2019-05-14T02:04:06.522Z,99723.55
2019-05-14T02:06:41.213Z,99717.47
2019-05-14T02:09:13.530Z,99711.77
2019-05-14T02:11:46.001Z,99712.56
2019-05-14T02:14:18.633Z,99713.02
2019-05-14T02:16:51.215Z,99715.23
2019-05-14T02:19:24.639Z,99710.22
2019-05-14T02:22:02.143Z,99707.05
2019-05-14T02:24:35.249Z,99694.36
2019-05-14T02:27:08.212Z,99692.33
2019-05-14T02:29:41.617Z,99693.33
2019-05-14T02:32:14.783Z,99696.89
2019-05-14T02:34:49.876Z,99696.77
2019-05-14T02:37:21.885Z,99687.51
2019-05-14T02:39:55.138Z,99692.73
2019-05-14T02:42:28.897Z,99696.80
2019-05-14T02:45:01.983Z,99697.10
2019-05-14T02:47:34.146Z,99695.55
2019-05-14T02:50:09.848Z,99693.07
2019-05-14T02:52:40.906Z,99692.80
2019-05-14T02:55:13.625Z,99685.41
2019-05-14T02:57:45.711Z,99684.92
2019-05-14T03:00:19.424Z,99682.59
2019-05-14T03:02:51.869Z,99683.61
2019-05-14T03:05:24.888Z,99683.83
2019-05-14T03:07:59.912Z,99678.96
2019-05-14T03:10:32.473Z,99677.93
2019-05-14T03:13:04.689Z,99680.48
2019-05-14T03:15:39.134Z,99679.90
2019-05-14T03:18:19.550Z,99677.76
2019-05-14T03:20:50.645Z,99674.55
2019-05-14T03:23:23.535Z,99673.85
2019-05-14T03:26:00.409Z,99665.02
2019-05-14T03:28:33.302Z,99670.70
2019-05-14T03:31:05.518Z,99672.64
2019-05-14T03:33:43.759Z,99665.45
2019-05-14T03:36:17.850Z,99666.55
2019-05-14T03:38:50.215Z,99664.00
2019-05-14T03:41:22.281Z,99664.13
2019-05-14T03:43:54.975Z,99668.21
2019-05-14T03:46:44.711Z,99662.17
2019-05-14T03:49:01.687Z,99663.55
2019-05-14T03:51:33.748Z,99662.53
2019-05-14T03:54:11.350Z,99652.59
2019-05-14T03:56:40.663Z,99649.95
2019-05-14T03:59:12.773Z,99654.30
2019-05-14T04:01:46.092Z,99653.30
2019-05-14T04:04:19.714Z,99653.67
2019-05-14T04:06:59.672Z,99652.12
2019-05-14T04:09:32.001Z,99648.33
2019-05-14T04:12:10.036Z,99652.78
2019-05-14T04:14:46.291Z,99650.59
2019-05-14T04:17:32.104Z,99651.15
2019-05-14T04:20:00.703Z,99649.97
2019-05-14T04:22:39.324Z,99648.25
2019-05-14T04:25:12.161Z,99651.15
2019-05-14T04:27:49.400Z,99652.73
2019-05-14T04:30:24.279Z,99648.34
2019-05-14T04:33:00.900Z,99648.32
2019-05-14T04:35:35.456Z,99640.68
2019-05-14T04:38:09.589Z,99647.19
2019-05-14T04:40:42.574Z,99654.69
2019-05-14T04:43:19.193Z,99647.42
2019-05-14T04:45:51.618Z,99649.23
2019-05-14T04:48:35.820Z,99650.41
2019-05-14T04:51:00.529Z,99650.03
2019-05-14T04:53:33.691Z,99654.91
2019-05-14T04:56:09.852Z,99653.67
2019-05-14T04:58:41.817Z,99651.59
2019-05-14T05:01:14.995Z,99661.08
2019-05-14T05:03:45.779Z,99653.52
2019-05-14T05:06:19.182Z,99656.97
2019-05-14T05:08:52.381Z,99651.73
2019-05-14T05:11:25.060Z,99648.14
2019-05-14T05:13:59.466Z,99649.13
2019-05-14T05:16:32.399Z,99645.44
2019-05-14T05:19:04.834Z,99648.14
2019-05-14T05:21:38.774Z,99641.67
2019-05-14T05:24:11.581Z,99642.60
2019-05-14T05:26:44.534Z,99637.11
2019-05-14T05:29:18.577Z,99631.12
2019-05-14T05:31:51.625Z,99631.85
2019-05-14T05:34:24.069Z,99627.81
2019-05-14T05:36:58.983Z,99636.27
2019-05-14T05:39:30.623Z,99634.98
2019-05-14T05:42:04.170Z,99629.69
2019-05-14T05:44:35.060Z,99642.95
2019-05-14T05:47:09.154Z,99634.11
2019-05-14T05:49:42.570Z,99637.16
2019-05-14T05:52:15.253Z,99640.02
2019-05-14T05:54:49.045Z,99634.94
2019-05-14T05:57:22.827Z,99644.19
2019-05-14T05:59:58.879Z,99633.73
2019-05-14T06:02:32.131Z,99639.58
2019-05-14T06:05:08.075Z,99633.63
2019-05-14T06:07:41.125Z,99641.69
2019-05-14T06:10:13.282Z,99627.37
2019-05-14T06:12:45.944Z,99633.48
2019-05-14T06:15:19.326Z,99629.69
2019-05-14T06:17:52.625Z,99626.52
2019-05-14T06:20:25.177Z,99621.79
2019-05-14T06:22:59.653Z,99625.50
2019-05-14T06:25:33.251Z,99625.56
2019-05-14T06:28:05.689Z,99621.92
2019-05-14T06:30:40.846Z,99620.70
2019-05-14T06:33:13.368Z,99624.92
2019-05-14T06:35:45.379Z,99622.35
2019-05-14T06:38:18.513Z,99621.33
2019-05-14T06:40:51.356Z,99624.18
2019-05-14T06:43:24.316Z,99619.34
2019-05-14T06:45:59.196Z,99616.28
2019-05-14T06:48:34.737Z,99625.78
2019-05-14T06:51:08.865Z,99621.27
2019-05-14T06:53:42.118Z,99625.65
2019-05-14T06:56:17.883Z,99619.28
2019-05-14T06:58:49.742Z,99625.36
2019-05-14T07:01:22.089Z,99616.88
2019-05-14T07:03:54.469Z,99613.19
2019-05-14T07:06:29.081Z,99611.89
2019-05-14T07:09:01.523Z,99608.00
2019-05-14T07:11:33.527Z,99600.23
2019-05-14T07:14:10.928Z,99598.77
2019-05-14T07:16:42.121Z,99602.70
2019-05-14T07:19:15.917Z,99592.47
2019-05-14T07:21:50.188Z,99593.64
2019-05-14T07:24:21.816Z,99597.72
2019-05-14T07:26:53.807Z,99591.00
2019-05-14T07:29:25.881Z,99586.66
2019-05-14T07:31:59.142Z,99589.45
2019-05-14T07:34:31.341Z,99579.03
2019-05-14T07:37:04.005Z,99579.94
2019-05-14T07:39:38.547Z,99581.44
2019-05-14T07:42:11.373Z,99585.19
2019-05-14T07:44:44.415Z,99582.27
2019-05-14T07:47:15.545Z,99585.77
2019-05-14T07:49:49.026Z,99583.73
2019-05-14T07:52:21.545Z,99579.67
2019-05-14T07:54:53.752Z,99580.64
2019-05-14T07:57:28.292Z,99579.82
2019-05-14T08:00:00.888Z,99578.20
2019-05-14T08:02:33.555Z,99567.23
2019-05-14T08:05:08.747Z,99575.34
2019-05-14T08:07:41.118Z,99572.97
2019-05-14T08:10:14.761Z,99563.12
2019-05-14T08:12:48.517Z,99559.73
2019-05-14T08:15:22.510Z,99554.95
2019-05-14T08:17:55.021Z,99553.27
2019-05-14T08:20:28.638Z,99549.57
2019-05-14T08:23:02.021Z,99547.33
2019-05-14T08:25:34.120Z,99545.44
2019-05-14T08:28:08.140Z,99545.83
2019-05-14T08:30:40.577Z,99539.19
2019-05-14T08:33:12.652Z,99539.39
2019-05-14T08:35:44.695Z,99550.34
2019-05-14T08:38:18.465Z,99543.71
2019-05-14T08:40:51.998Z,99537.20
2019-05-14T08:43:25.119Z,99534.36
2019-05-14T08:45:58.774Z,99524.53
2019-05-14T08:48:31.328Z,99523.63
2019-05-14T08:51:05.729Z,99518.84
2019-05-14T08:53:38.717Z,99515.42
2019-05-14T08:56:12.334Z,99522.59
2019-05-14T08:58:45.190Z,99516.84
2019-05-14T09:01:15.961Z,99520.47
2019-05-14T09:03:49.684Z,99516.09
2019-05-14T09:06:23.700Z,99520.66
2019-05-14T09:08:59.205Z,99520.66
2019-05-14T09:11:35.389Z,99522.62
2019-05-14T09:14:05.134Z,99519.04
2019-05-14T09:16:46.187Z,99523.23
2019-05-14T09:19:11.612Z,99528.34
2019-05-14T09:21:43.919Z,99525.14
2019-05-14T09:24:18.208Z,99515.59
2019-05-14T09:26:50.817Z,99506.17
2019-05-14T09:29:25.870Z,99509.55
2019-05-14T09:31:58.753Z,99505.16
2019-05-14T09:34:29.734Z,99508.49
2019-05-14T09:37:02.378Z,99502.48
2019-05-14T09:39:33.722Z,99504.82
2019-05-14T09:42:08.213Z,99504.84
2019-05-14T09:44:41.291Z,99492.80
2019-05-14T09:47:14.353Z,99495.23
2019-05-14T09:49:49.076Z,99500.81
2019-05-14T09:52:21.702Z,99490.66
2019-05-14T09:54:54.451Z,99496.25
2019-05-14T09:57:25.213Z,99486.77
2019-05-14T09:59:58.562Z,99490.09
2019-05-14T10:02:31.171Z,99486.36
2019-05-14T10:05:03.477Z,99481.28
2019-05-14T10:07:39.094Z,99490.56
2019-05-14T10:10:10.872Z,99484.15
2019-05-14T10:12:52.416Z,99480.60
2019-05-14T10:15:18.269Z,99479.30
2019-05-14T10:17:50.642Z,99480.48
2019-05-14T10:20:36.751Z,99483.05
2019-05-14T10:22:58.570Z,99478.64
2019-05-14T10:25:31.625Z,99486.03
2019-05-14T10:28:04.222Z,99470.59
2019-05-14T10:30:36.897Z,99472.61
2019-05-14T10:33:14.747Z,99456.44
2019-05-14T10:35:48.614Z,99464.83
2019-05-14T10:38:20.811Z,99454.27
2019-05-14T10:40:53.336Z,99464.70
2019-05-14T10:43:25.406Z,99452.95
2019-05-14T10:45:58.196Z,99453.48
2019-05-14T10:48:29.332Z,99448.08
2019-05-14T10:51:03.618Z,99442.80
2019-05-14T10:53:35.627Z,99435.54
2019-05-14T10:56:09.671Z,99436.65
2019-05-14T10:58:42.307Z,99425.65
2019-05-14T11:01:14.359Z,99414.02
2019-05-14T11:03:48.410Z,99411.41
2019-05-14T11:06:20.603Z,99420.17
2019-05-14T11:08:52.744Z,99419.58
2019-05-14T11:11:25.192Z,99426.89
2019-05-14T11:13:57.606Z,99422.70
2019-05-14T11:16:29.994Z,99427.93
2019-05-14T11:19:02.388Z,99427.51
2019-05-14T11:21:34.980Z,99415.80
2019-05-14T11:24:09.440Z,99402.52
2019-05-14T11:26:41.216Z,99403.53
2019-05-14T11:29:14.151Z,99402.75
2019-05-14T11:31:48.376Z,99403.06
2019-05-14T11:34:20.303Z,99393.35
2019-05-14T11:36:51.078Z,99383.92
2019-05-14T11:39:23.612Z,99380.97
2019-05-14T11:41:54.968Z,99376.53
2019-05-14T11:44:28.565Z,99379.48
2019-05-14T11:47:02.546Z,99378.92
2019-05-14T11:49:34.176Z,99373.29
2019-05-14T11:52:11.486Z,99371.15
2019-05-14T11:54:41.819Z,99365.81
2019-05-14T11:57:14.212Z,99366.33
2019-05-14T11:59:45.396Z,99370.64
2019-05-14T12:02:18.933Z,99370.91
2019-05-14T12:04:52.488Z,99370.63
2019-05-14T12:07:24.630Z,99364.00
2019-05-14T12:09:56.904Z,99356.16
2019-05-14T12:12:28.961Z,99355.98
2019-05-14T12:15:00.961Z,99358.42
2019-05-14T12:17:33.303Z,99362.70
2019-05-14T12:20:06.511Z,99366.63
2019-05-14T12:22:39.488Z,99354.48
2019-05-14T12:25:12.270Z,99357.12
2019-05-14T12:27:45.180Z,99357.53
2019-05-14T12:30:19.640Z,99338.42
2019-05-14T12:32:52.308Z,99325.34
2019-05-14T12:35:23.501Z,99345.35
2019-05-14T12:37:55.207Z,99342.82
2019-05-14T12:40:28.947Z,99347.95
2019-05-14T12:43:01.910Z,99347.21
2019-05-14T12:45:34.287Z,99339.72
2019-05-14T12:48:09.145Z,99333.03
2019-05-14T12:50:40.499Z,99341.78
2019-05-14T12:53:14.419Z,99336.36
2019-05-14T12:55:48.730Z,99340.29
2019-05-14T13:01:25.944Z,99332.54
2019-05-14T13:03:59.311Z,99330.16
2019-05-14T13:06:32.094Z,99331.05
2019-05-14T13:09:05.266Z,99339.90
2019-05-14T13:11:41.491Z,99340.34
2019-05-14T13:14:12.796Z,99324.39
2019-05-14T13:16:45.488Z,99327.47
2019-05-14T13:19:18.980Z,99329.73
2019-05-14T13:22:08.713Z,99324.73
2019-05-14T13:24:25.829Z,99308.91
2019-05-14T13:27:00.009Z,99310.58
2019-05-14T13:29:32.463Z,99302.75
2019-05-14T13:32:04.868Z,99301.26
2019-05-14T13:34:39.534Z,99301.04
2019-05-14T13:37:11.540Z,99290.01
2019-05-14T13:39:42.667Z,99282.23
2019-05-14T13:42:14.957Z,99286.69
2019-05-14T13:44:47.299Z,99281.08
2019-05-14T13:47:19.690Z,99278.38
2019-05-14T13:49:51.802Z,99278.69
2019-05-14T13:52:24.728Z,99290.48
2019-05-14T13:54:56.544Z,99284.13
2019-05-14T13:57:29.390Z,99281.45
2019-05-14T14:00:01.548Z,99294.31
2019-05-14T14:02:34.484Z,99301.73
2019-05-14T14:05:08.699Z,99294.61
2019-05-14T14:07:44.597Z,99287.53
2019-05-14T14:10:15.588Z,99293.69
2019-05-14T14:12:49.806Z,99284.30
2019-05-14T14:15:22.030Z,99277.09
2019-05-14T14:17:55.006Z,99278.42
2019-05-14T14:20:29.135Z,99283.95
2019-05-14T14:23:17.624Z,99271.22
2019-05-14T14:25:35.274Z,99257.45
2019-05-14T14:28:09.944Z,99243.81
2019-05-14T14:30:41.815Z,99239.06
2019-05-14T14:33:14.186Z,99225.49
2019-05-14T14:35:48.546Z,99229.55
2019-05-14T14:38:20.877Z,99252.11
2019-05-14T14:40:53.237Z,99247.66
2019-05-14T14:43:25.297Z,99257.44
2019-05-14T14:45:59.339Z,99268.81
2019-05-14T14:48:32.264Z,99268.45
2019-05-14T14:51:04.654Z,99265.48
2019-05-14T14:53:52.498Z,99263.37
2019-05-14T14:56:12.734Z,99262.64
2019-05-14T14:58:44.671Z,99255.00
2019-05-14T15:01:19.366Z,99246.22
2019-05-14T15:03:52.159Z,99245.89
2019-05-14T15:06:25.006Z,99236.05
2019-05-14T15:08:58.905Z,99238.92
2019-05-14T15:11:30.580Z,99236.00
2019-05-14T15:14:04.484Z,99222.81
2019-05-14T15:16:38.842Z,99225.99
2019-05-14T15:19:10.113Z,99218.91
2019-05-14T15:21:42.310Z,99217.49
2019-05-14T15:24:16.103Z,99211.55
2019-05-14T15:26:48.959Z,99216.79
2019-05-14T15:29:21.736Z,99213.09
2019-05-14T15:31:53.143Z,99204.54
2019-05-14T15:34:25.254Z,99201.82
2019-05-14T15:36:59.769Z,99198.28
2019-05-14T15:39:32.525Z,99204.90
2019-05-14T15:42:06.574Z,99199.39
2019-05-14T15:44:48.781Z,99205.66
2019-05-14T15:47:13.052Z,99202.99
2019-05-14T15:49:48.908Z,99198.25
2019-05-14T15:52:20.688Z,99191.91
2019-05-14T15:54:53.787Z,99189.52
2019-05-14T15:57:28.619Z,99184.95
2019-05-14T16:00:01.060Z,99187.44
2019-05-14T16:02:33.861Z,99182.45
2019-05-14T16:05:05.059Z,99185.46
2019-05-14T16:07:39.152Z,99172.41
2019-05-14T16:10:13.138Z,99169.46
2019-05-14T16:12:45.926Z,99166.53
2019-05-14T16:15:18.826Z,99178.51
2019-05-14T16:18:06.386Z,99185.69
2019-05-14T16:20:25.883Z,99182.36
2019-05-14T16:22:58.933Z,99177.98
2019-05-14T16:25:31.405Z,99184.20
2019-05-14T16:28:04.223Z,99184.38
2019-05-14T16:30:39.689Z,99176.64
2019-05-14T16:33:11.215Z,99180.57
2019-05-14T16:35:43.460Z,99187.59
2019-05-14T16:38:16.467Z,99176.81
2019-05-14T16:40:48.951Z,99187.22
2019-05-14T16:43:21.752Z,99196.47
2019-05-14T16:45:54.182Z,99200.70
2019-05-14T16:48:28.969Z,99228.45
2019-05-14T16:51:01.264Z,99239.78
2019-05-14T16:53:33.781Z,99248.86
2019-05-14T16:56:08.162Z,99258.81
2019-05-14T16:58:42.187Z,99255.45
2019-05-14T17:01:18.982Z,99248.13
2019-05-14T17:03:49.800Z,99244.27
2019-05-14T17:06:22.950Z,99240.56
2019-05-14T17:08:56.119Z,99246.27
2019-05-14T17:11:28.449Z,99253.19
2019-05-14T17:14:01.137Z,99254.73
2019-05-14T17:16:33.544Z,99248.66
2019-05-14T17:19:09.131Z,99244.26
2019-05-14T17:21:41.368Z,99245.66
2019-05-14T17:24:14.009Z,99249.99
2019-05-14T17:26:48.826Z,99253.89
2019-05-14T17:29:21.239Z,99258.56
2019-05-14T17:31:53.948Z,99262.92
2019-05-14T17:34:29.116Z,99278.08
2019-05-14T17:37:00.849Z,99283.11
2019-05-14T17:39:33.836Z,99288.97
2019-05-14T17:42:11.424Z,99293.47
2019-05-14T17:44:41.739Z,99279.03
2019-05-14T17:47:12.547Z,99278.02
2019-05-14T17:49:45.591Z,99279.62
2019-05-14T17:52:21.790Z,99282.76
2019-05-14T17:54:53.022Z,99274.63
2019-05-14T17:57:26.166Z,99274.22
2019-05-14T18:00:02.587Z,99271.52
2019-05-14T18:02:36.347Z,99277.73
2019-05-14T18:05:09.749Z,99274.58
2019-05-14T18:07:42.607Z,99273.00
2019-05-14T18:10:15.645Z,99272.28
2019-05-14T18:12:49.349Z,99279.49
2019-05-14T18:15:24.885Z,99267.34
2019-05-14T18:17:58.847Z,99272.23
2019-05-14T18:20:32.083Z,99267.78
2019-05-14T18:23:11.406Z,99265.55
2019-05-14T18:25:41.567Z,99255.48
2019-05-14T18:29:21.165Z,99252.27
2019-05-14T18:31:33.619Z,99255.98
2019-05-14T18:34:07.396Z,99263.61
2019-05-14T18:36:41.941Z,99263.34
2019-05-14T18:39:18.355Z,99264.73
2019-05-14T18:41:52.145Z,99272.06
2019-05-14T18:44:28.265Z,99272.02
2019-05-14T18:47:00.492Z,99273.61
2019-05-14T18:49:32.955Z,99277.94
2019-05-14T18:52:05.771Z,99273.89
2019-05-14T18:54:41.058Z,99276.14
2019-05-14T18:57:14.587Z,99272.78
2019-05-14T18:59:49.447Z,99266.34
2019-05-14T19:02:22.812Z,99265.09
2019-05-14T19:04:54.664Z,99276.39
2019-05-14T19:07:28.784Z,99274.20
2019-05-14T19:10:01.808Z,99273.88
2019-05-14T19:12:34.218Z,99268.55
2019-05-14T19:15:10.328Z,99269.91
2019-05-14T19:17:43.068Z,99275.81
2019-05-14T19:20:19.055Z,99279.70
2019-05-14T19:22:51.200Z,99280.66
2019-05-14T19:25:23.824Z,99279.96
2019-05-14T19:27:58.171Z,99275.00
2019-05-14T19:30:30.686Z,99280.92
2019-05-14T19:33:02.845Z,99277.55
2019-05-14T19:35:35.905Z,99275.87
2019-05-14T19:38:08.892Z,99283.44
2019-05-14T19:40:40.972Z,99280.55
2019-05-14T19:43:13.049Z,99287.63
2019-05-14T19:45:48.373Z,99286.41
2019-05-14T19:48:20.861Z,99285.36
2019-05-14T19:50:54.379Z,99285.74
2019-05-14T19:53:28.435Z,99291.78
2019-05-14T19:56:05.379Z,99294.95
2019-05-14T19:58:39.266Z,99287.65
2019-05-14T20:01:12.251Z,99285.94
2019-05-14T20:03:44.389Z,99291.84
2019-05-14T20:06:18.734Z,99291.89
2019-05-14T20:08:51.821Z,99292.27
2019-05-14T20:11:25.936Z,99288.03
2019-05-14T20:13:59.944Z,99295.59
2019-05-14T20:16:32.342Z,99288.57
2019-05-14T20:19:04.537Z,99287.45
2019-05-14T20:21:39.022Z,99281.64
2019-05-14T20:24:12.151Z,99282.16
2019-05-14T20:26:46.399Z,99280.02
2019-05-14T20:29:19.679Z,99276.37
2019-05-14T20:31:52.148Z,99273.27
2019-05-14T20:34:25.170Z,99271.32
2019-05-14T20:36:58.812Z,99268.11
2019-05-14T20:39:33.589Z,99265.43
2019-05-14T20:42:06.255Z,99265.30
2019-05-14T20:44:38.741Z,99263.41
2019-05-14T20:47:11.631Z,99257.91
2019-05-14T20:49:47.428Z,99256.05
2019-05-14T20:52:20.664Z,99255.34
2019-05-14T20:54:53.248Z,99255.19
2019-05-14T20:57:31.257Z,99253.72
2019-05-14T21:00:02.283Z,99250.61
2019-05-14T21:02:34.736Z,99245.55
2019-05-14T21:05:13.549Z,99247.75
2019-05-14T21:07:42.662Z,99252.25
2019-05-14T21:10:14.961Z,99247.18
2019-05-14T21:12:48.891Z,99244.66
2019-05-14T21:15:21.587Z,99242.55
2019-05-14T21:17:54.253Z,99244.23
2019-05-14T21:20:28.258Z,99239.87
2019-05-14T21:23:00.368Z,99237.89
2019-05-14T21:25:32.650Z,99237.86
2019-05-14T21:28:05.023Z,99232.86
2019-05-14T21:30:38.822Z,99231.94
2019-05-14T21:33:11.371Z,99227.42
2019-05-14T21:35:44.258Z,99232.08
2019-05-14T21:38:19.162Z,99229.14
2019-05-14T21:40:51.359Z,99225.76
2019-05-14T21:43:24.190Z,99221.88
2019-05-14T21:45:58.664Z,99220.42
2019-05-14T21:48:31.210Z,99216.62
2019-05-14T21:51:04.001Z,99209.77
2019-05-14T21:53:40.809Z,99210.98
2019-05-14T21:56:12.380Z,99215.78
2019-05-14T21:58:45.296Z,99208.50
2019-05-14T22:01:18.889Z,99213.44
2019-05-14T22:03:52.426Z,99213.72
2019-05-14T22:06:23.573Z,99210.23
2019-05-14T22:08:55.242Z,99211.39
2019-05-14T22:11:28.585Z,99209.68
2019-05-14T22:14:10.885Z,99208.80
2019-05-14T22:16:42.981Z,99210.02
2019-05-14T22:19:15.102Z,99201.36
2019-05-14T22:21:49.119Z,99205.36
2019-05-14T22:24:23.372Z,99200.19
2019-05-14T22:26:58.213Z,99202.67
2019-05-14T22:29:31.040Z,99203.75
2019-05-14T22:32:08.199Z,99196.73
2019-05-14T22:34:42.909Z,99201.16
2019-05-14T22:37:19.902Z,99193.66
2019-05-14T22:39:51.224Z,99193.13
2019-05-14T22:42:23.641Z,99191.88
2019-05-14T22:44:58.308Z,99187.97
2019-05-14T22:47:31.185Z,99191.22
2019-05-14T22:50:04.138Z,99183.86
2019-05-14T22:52:38.596Z,99187.36
2019-05-14T22:55:11.966Z,99187.30
2019-05-14T22:57:44.314Z,99194.89
2019-05-14T23:00:20.935Z,99195.41
2019-05-14T23:02:55.700Z,99188.92
2019-05-14T23:05:28.958Z,99195.70
2019-05-14T23:08:00.400Z,99197.83
2019-05-14T23:10:34.447Z,99195.66
2019-05-14T23:13:09.382Z,99195.89
2019-05-14T23:15:42.282Z,99193.61
2019-05-14T23:18:14.591Z,99197.40
2019-05-14T23:20:49.218Z,99190.71
2019-05-14T23:23:23.311Z,99191.47
2019-05-14T23:25:55.851Z,99187.09
2019-05-14T23:28:41.421Z,99190.25
2019-05-14T23:31:03.709Z,99191.90
2019-05-14T23:33:35.007Z,99189.16
2019-05-14T23:36:08.822Z,99184.84
2019-05-14T23:38:42.220Z,99184.71
2019-05-14T23:41:14.006Z,99177.66
2019-05-14T23:43:47.025Z,99176.70
2019-05-14T23:46:19.436Z,99169.88
2019-05-14T23:48:52.473Z,99169.62
2019-05-14T23:51:25.338Z,99160.54
2019-05-14T23:53:58.243Z,99161.62
2019-05-14T23:56:30.561Z,99155.81
2019-05-14T23:59:02.853Z,99153.23
